Boca, California
Current Conditions -  °F | °C
As of 7:55 AM on Friday 19 Dec 2014 (Local Time) from KTRK Reporting Station
Broken Clouds Broken Clouds  
Wind Chill: 31°   Ceiling: 3500
Heat Index: 39°   Visibility: 10mi
Dew Point: 25°   Wind: 14mph
Humidity: 56%   Direction: 210°SSW
Pressure: 30.09"   Gusts: 23mph
Location:  39.3569°N, 120.175°W
Report Text: KTRK 191555Z 21012G20KT 10SM BKN035 04/M04 A3009 RMK NOSPECI
Loading
Personal Weather Stations






























Interactive Weather Map New forecast layout! Learn more

10-Day Weather Forecast

Advertisements
Track Severe Weather on mobile